sensor_id;sensor_type;location;lat;lon;timestamp;P1;durP1;ratioP1;P2;durP2;ratioP2
26622;SDS011;14254;50.968;5.366;2022-10-16T00:00:32;2.60;;;1.30;;
26622;SDS011;14254;50.968;5.366;2022-10-16T00:02:59;2.25;;;1.48;;
26622;SDS011;14254;50.968;5.366;2022-10-16T00:05:25;1.45;;;1.35;;
26622;SDS011;14254;50.968;5.366;2022-10-16T00:07:51;4.38;;;1.40;;
26622;SDS011;14254;50.968;5.366;2022-10-16T00:10:16;4.43;;;1.25;;
26622;SDS011;14254;50.968;5.366;2022-10-16T00:12:42;3.28;;;1.80;;
26622;SDS011;14254;50.968;5.366;2022-10-16T00:15:08;2.58;;;1.40;;
26622;SDS011;14254;50.968;5.366;2022-10-16T00:17:34;1.70;;;1.13;;
26622;SDS011;14254;50.968;5.366;2022-10-16T00:19:59;1.42;;;1.33;;
26622;SDS011;14254;50.968;5.366;2022-10-16T00:22:25;4.63;;;1.55;;
26622;SDS011;14254;50.968;5.366;2022-10-16T00:24:51;3.30;;;1.40;;
26622;SDS011;14254;50.968;5.366;2022-10-16T00:27:17;2.00;;;1.80;;
26622;SDS011;14254;50.968;5.366;2022-10-16T00:29:42;6.22;;;1.30;;
26622;SDS011;14254;50.968;5.366;2022-10-16T00:32:08;2.80;;;1.27;;
26622;SDS011;14254;50.968;5.366;2022-10-16T00:34:34;3.13;;;1.15;;
26622;SDS011;14254;50.968;5.366;2022-10-16T00:37:00;2.90;;;2.13;;
26622;SDS011;14254;50.968;5.366;2022-10-16T00:39:25;4.88;;;1.58;;
26622;SDS011;14254;50.968;5.366;2022-10-16T00:41:51;5.60;;;1.25;;
26622;SDS011;14254;50.968;5.366;2022-10-16T00:50:06;2.17;;;1.98;;
26622;SDS011;14254;50.968;5.366;2022-10-16T00:52:43;5.85;;;1.10;;
26622;SDS011;14254;50.968;5.366;2022-10-16T00:55:11;4.30;;;1.27;;
26622;SDS011;14254;50.968;5.366;2022-10-16T00:57:37;3.10;;;1.35;;
26622;SDS011;14254;50.968;5.366;2022-10-16T01:00:05;3.42;;;1.23;;
26622;SDS011;14254;50.968;5.366;2022-10-16T01:02:32;2.53;;;1.38;;
26622;SDS011;14254;50.968;5.366;2022-10-16T01:04:58;2.72;;;1.25;;
26622;SDS011;14254;50.968;5.366;2022-10-16T01:12:54;1.77;;;1.05;;
26622;SDS011;14254;50.968;5.366;2022-10-16T01:15:40;5.85;;;1.20;;
26622;SDS011;14254;50.968;5.366;2022-10-16T01:18:46;1.83;;;1.15;;
26622;SDS011;14254;50.968;5.366;2022-10-16T01:21:29;1.63;;;1.50;;
26622;SDS011;14254;50.968;5.366;2022-10-16T01:24:14;1.10;;;1.10;;
26622;SDS011;14254;50.968;5.366;2022-10-16T01:29:27;3.60;;;1.55;;
26622;SDS011;14254;50.968;5.366;2022-10-16T01:31:56;1.55;;;1.23;;
26622;SDS011;14254;50.968;5.366;2022-10-16T01:34:33;2.90;;;1.20;;
26622;SDS011;14254;50.968;5.366;2022-10-16T01:37:05;1.77;;;1.20;;
26622;SDS011;14254;50.968;5.366;2022-10-16T01:39:37;3.40;;;1.27;;
26622;SDS011;14254;50.968;5.366;2022-10-16T01:42:07;3.30;;;1.15;;
26622;SDS011;14254;50.968;5.366;2022-10-16T01:44:37;2.90;;;1.15;;
26622;SDS011;14254;50.968;5.366;2022-10-16T01:47:04;2.63;;;1.20;;
26622;SDS011;14254;50.968;5.366;2022-10-16T01:49:33;7.82;;;1.02;;
26622;SDS011;14254;50.968;5.366;2022-10-16T01:52:02;1.00;;;1.00;;
26622;SDS011;14254;50.968;5.366;2022-10-16T01:54:33;4.55;;;1.33;;
26622;SDS011;14254;50.968;5.366;2022-10-16T01:57:01;1.52;;;0.85;;
26622;SDS011;14254;50.968;5.366;2022-10-16T01:59:30;3.00;;;1.00;;
26622;SDS011;14254;50.968;5.366;2022-10-16T02:02:01;3.58;;;1.17;;
26622;SDS011;14254;50.968;5.366;2022-10-16T02:04:45;1.98;;;1.50;;
26622;SDS011;14254;50.968;5.366;2022-10-16T02:07:18;1.13;;;1.02;;
26622;SDS011;14254;50.968;5.366;2022-10-16T02:09:44;3.55;;;2.15;;
26622;SDS011;14254;50.968;5.366;2022-10-16T02:12:23;5.18;;;1.40;;
26622;SDS011;14254;50.968;5.366;2022-10-16T02:14:55;4.55;;;1.10;;
26622;SDS011;14254;50.968;5.366;2022-10-16T02:17:22;3.72;;;1.70;;
26622;SDS011;14254;50.968;5.366;2022-10-16T02:19:48;2.17;;;1.48;;
26622;SDS011;14254;50.968;5.366;2022-10-16T02:22:18;3.03;;;1.17;;
26622;SDS011;14254;50.968;5.366;2022-10-16T02:33:07;1.60;;;1.23;;
26622;SDS011;14254;50.968;5.366;2022-10-16T02:35:35;2.08;;;1.33;;
26622;SDS011;14254;50.968;5.366;2022-10-16T02:38:02;1.88;;;1.30;;
26622;SDS011;14254;50.968;5.366;2022-10-16T02:40:28;2.33;;;1.10;;
26622;SDS011;14254;50.968;5.366;2022-10-16T02:42:54;3.60;;;1.50;;
26622;SDS011;14254;50.968;5.366;2022-10-16T02:45:21;2.10;;;1.35;;
26622;SDS011;14254;50.968;5.366;2022-10-16T02:47:47;3.80;;;1.52;;
26622;SDS011;14254;50.968;5.366;2022-10-16T02:50:13;3.30;;;1.38;;
26622;SDS011;14254;50.968;5.366;2022-10-16T02:52:39;5.72;;;1.15;;
26622;SDS011;14254;50.968;5.366;2022-10-16T02:55:05;2.28;;;1.50;;
26622;SDS011;14254;50.968;5.366;2022-10-16T02:57:31;3.63;;;1.40;;
26622;SDS011;14254;50.968;5.366;2022-10-16T02:59:57;1.70;;;1.40;;
26622;SDS011;14254;50.968;5.366;2022-10-16T03:02:23;2.22;;;1.52;;
26622;SDS011;14254;50.968;5.366;2022-10-16T03:04:48;4.22;;;1.45;;
26622;SDS011;14254;50.968;5.366;2022-10-16T03:07:14;5.18;;;2.47;;
26622;SDS011;14254;50.968;5.366;2022-10-16T03:09:40;1.23;;;1.13;;
26622;SDS011;14254;50.968;5.366;2022-10-16T03:12:06;2.17;;;1.27;;
26622;SDS011;14254;50.968;5.366;2022-10-16T03:14:31;5.07;;;1.50;;
26622;SDS011;14254;50.968;5.366;2022-10-16T03:16:57;1.83;;;1.55;;
26622;SDS011;14254;50.968;5.366;2022-10-16T03:19:23;4.65;;;1.60;;
26622;SDS011;14254;50.968;5.366;2022-10-16T03:21:49;6.05;;;1.50;;
26622;SDS011;14254;50.968;5.366;2022-10-16T03:24:15;3.03;;;1.30;;
26622;SDS011;14254;50.968;5.366;2022-10-16T03:26:40;4.18;;;1.30;;
26622;SDS011;14254;50.968;5.366;2022-10-16T03:29:06;2.72;;;1.50;;
26622;SDS011;14254;50.968;5.366;2022-10-16T03:31:32;3.90;;;1.40;;
26622;SDS011;14254;50.968;5.366;2022-10-16T03:33:58;4.05;;;1.60;;
26622;SDS011;14254;50.968;5.366;2022-10-16T03:36:24;3.42;;;1.48;;
26622;SDS011;14254;50.968;5.366;2022-10-16T03:38:49;1.55;;;1.10;;
26622;SDS011;14254;50.968;5.366;2022-10-16T03:41:15;3.38;;;1.40;;
26622;SDS011;14254;50.968;5.366;2022-10-16T03:43:41;5.55;;;1.30;;
26622;SDS011;14254;50.968;5.366;2022-10-16T03:46:07;1.88;;;1.40;;
26622;SDS011;14254;50.968;5.366;2022-10-16T03:48:32;2.58;;;1.50;;
26622;SDS011;14254;50.968;5.366;2022-10-16T03:50:58;2.15;;;1.50;;
26622;SDS011;14254;50.968;5.366;2022-10-16T03:53:24;2.83;;;1.33;;
26622;SDS011;14254;50.968;5.366;2022-10-16T03:55:50;4.57;;;1.50;;
26622;SDS011;14254;50.968;5.366;2022-10-16T03:58:15;5.22;;;1.42;;
26622;SDS011;14254;50.968;5.366;2022-10-16T04:00:42;2.88;;;1.42;;
26622;SDS011;14254;50.968;5.366;2022-10-16T04:03:09;2.58;;;1.48;;
26622;SDS011;14254;50.968;5.366;2022-10-16T04:05:35;2.50;;;1.60;;
26622;SDS011;14254;50.968;5.366;2022-10-16T04:08:01;1.67;;;1.35;;
26622;SDS011;14254;50.968;5.366;2022-10-16T04:10:26;2.40;;;1.58;;
26622;SDS011;14254;50.968;5.366;2022-10-16T04:12:52;4.80;;;1.30;;
26622;SDS011;14254;50.968;5.366;2022-10-16T04:15:20;4.85;;;1.73;;
26622;SDS011;14254;50.968;5.366;2022-10-16T04:17:49;4.78;;;2.00;;
26622;SDS011;14254;50.968;5.366;2022-10-16T04:20:15;2.13;;;1.90;;
26622;SDS011;14254;50.968;5.366;2022-10-16T04:22:41;4.18;;;1.70;;
26622;SDS011;14254;50.968;5.366;2022-10-16T04:25:07;3.75;;;1.63;;
26622;SDS011;14254;50.968;5.366;2022-10-16T04:27:33;2.95;;;1.98;;
26622;SDS011;14254;50.968;5.366;2022-10-16T04:29:59;2.83;;;1.90;;
26622;SDS011;14254;50.968;5.366;2022-10-16T04:32:25;1.80;;;1.70;;
26622;SDS011;14254;50.968;5.366;2022-10-16T04:34:51;9.13;;;2.28;;
26622;SDS011;14254;50.968;5.366;2022-10-16T04:37:17;9.10;;;2.38;;
26622;SDS011;14254;50.968;5.366;2022-10-16T04:39:43;2.15;;;1.95;;
26622;SDS011;14254;50.968;5.366;2022-10-16T04:42:09;2.83;;;2.05;;
26622;SDS011;14254;50.968;5.366;2022-10-16T04:44:35;3.75;;;1.80;;
26622;SDS011;14254;50.968;5.366;2022-10-16T04:47:01;3.78;;;2.00;;
26622;SDS011;14254;50.968;5.366;2022-10-16T04:49:27;3.35;;;2.13;;
26622;SDS011;14254;50.968;5.366;2022-10-16T04:51:52;2.58;;;2.08;;
26622;SDS011;14254;50.968;5.366;2022-10-16T04:54:18;5.18;;;2.20;;
26622;SDS011;14254;50.968;5.366;2022-10-16T04:56:44;5.78;;;2.15;;
26622;SDS011;14254;50.968;5.366;2022-10-16T04:59:13;5.40;;;2.28;;
26622;SDS011;14254;50.968;5.366;2022-10-16T05:01:39;5.35;;;2.25;;
26622;SDS011;14254;50.968;5.366;2022-10-16T05:04:05;5.03;;;2.55;;
26622;SDS011;14254;50.968;5.366;2022-10-16T05:06:31;3.13;;;2.42;;
26622;SDS011;14254;50.968;5.366;2022-10-16T05:08:57;5.13;;;2.17;;
26622;SDS011;14254;50.968;5.366;2022-10-16T05:11:23;4.30;;;2.83;;
26622;SDS011;14254;50.968;5.366;2022-10-16T05:13:48;4.63;;;2.90;;
26622;SDS011;14254;50.968;5.366;2022-10-16T05:16:14;5.30;;;2.63;;
26622;SDS011;14254;50.968;5.366;2022-10-16T05:18:40;5.15;;;2.80;;
26622;SDS011;14254;50.968;5.366;2022-10-16T05:21:05;5.32;;;3.28;;
26622;SDS011;14254;50.968;5.366;2022-10-16T05:23:31;4.28;;;2.60;;
26622;SDS011;14254;50.968;5.366;2022-10-16T05:25:58;6.65;;;3.00;;
26622;SDS011;14254;50.968;5.366;2022-10-16T05:28:24;8.23;;;3.15;;
26622;SDS011;14254;50.968;5.366;2022-10-16T05:30:51;3.83;;;3.40;;
26622;SDS011;14254;50.968;5.366;2022-10-16T05:33:19;5.53;;;3.55;;
26622;SDS011;14254;50.968;5.366;2022-10-16T05:35:46;4.00;;;2.92;;
26622;SDS011;14254;50.968;5.366;2022-10-16T05:38:11;6.13;;;3.35;;
26622;SDS011;14254;50.968;5.366;2022-10-16T05:40:37;8.02;;;3.42;;
26622;SDS011;14254;50.968;5.366;2022-10-16T05:43:03;6.30;;;3.45;;
26622;SDS011;14254;50.968;5.366;2022-10-16T05:45:29;5.90;;;3.13;;
26622;SDS011;14254;50.968;5.366;2022-10-16T05:47:54;3.35;;;2.90;;
26622;SDS011;14254;50.968;5.366;2022-10-16T05:50:20;6.90;;;3.03;;
26622;SDS011;14254;50.968;5.366;2022-10-16T05:52:46;4.07;;;3.25;;
26622;SDS011;14254;50.968;5.366;2022-10-16T05:55:11;5.68;;;3.30;;
26622;SDS011;14254;50.968;5.366;2022-10-16T05:57:37;5.07;;;3.35;;
26622;SDS011;14254;50.968;5.366;2022-10-16T06:00:03;5.88;;;3.42;;
26622;SDS011;14254;50.968;5.366;2022-10-16T06:02:30;5.72;;;3.38;;
26622;SDS011;14254;50.968;5.366;2022-10-16T06:04:55;8.40;;;3.90;;
26622;SDS011;14254;50.968;5.366;2022-10-16T06:07:21;5.57;;;3.67;;
26622;SDS011;14254;50.968;5.366;2022-10-16T06:09:48;6.40;;;3.85;;
26622;SDS011;14254;50.968;5.366;2022-10-16T06:12:15;6.32;;;3.40;;
26622;SDS011;14254;50.968;5.366;2022-10-16T06:14:40;7.60;;;3.75;;
26622;SDS011;14254;50.968;5.366;2022-10-16T06:17:06;11.98;;;3.67;;
26622;SDS011;14254;50.968;5.366;2022-10-16T06:19:32;7.13;;;3.72;;
26622;SDS011;14254;50.968;5.366;2022-10-16T06:21:57;5.20;;;3.75;;
26622;SDS011;14254;50.968;5.366;2022-10-16T06:24:23;8.90;;;4.22;;
26622;SDS011;14254;50.968;5.366;2022-10-16T06:26:49;9.68;;;3.88;;
26622;SDS011;14254;50.968;5.366;2022-10-16T06:29:15;5.78;;;3.53;;
26622;SDS011;14254;50.968;5.366;2022-10-16T06:31:41;6.43;;;3.75;;
26622;SDS011;14254;50.968;5.366;2022-10-16T06:34:10;9.27;;;3.42;;
26622;SDS011;14254;50.968;5.366;2022-10-16T06:36:37;4.50;;;3.42;;
26622;SDS011;14254;50.968;5.366;2022-10-16T06:39:03;7.72;;;3.83;;
26622;SDS011;14254;50.968;5.366;2022-10-16T06:41:29;6.00;;;3.78;;
26622;SDS011;14254;50.968;5.366;2022-10-16T06:43:55;8.02;;;4.05;;
26622;SDS011;14254;50.968;5.366;2022-10-16T06:46:21;8.88;;;3.67;;
26622;SDS011;14254;50.968;5.366;2022-10-16T06:48:49;9.13;;;3.75;;
26622;SDS011;14254;50.968;5.366;2022-10-16T06:51:18;4.30;;;3.22;;
26622;SDS011;14254;50.968;5.366;2022-10-16T06:53:46;8.40;;;3.50;;
26622;SDS011;14254;50.968;5.366;2022-10-16T06:58:50;8.60;;;3.55;;
26622;SDS011;14254;50.968;5.366;2022-10-16T07:01:17;7.38;;;3.38;;
26622;SDS011;14254;50.968;5.366;2022-10-16T07:03:45;6.90;;;3.20;;
26622;SDS011;14254;50.968;5.366;2022-10-16T07:06:12;6.85;;;3.40;;
26622;SDS011;14254;50.968;5.366;2022-10-16T07:08:40;7.63;;;3.47;;
26622;SDS011;14254;50.968;5.366;2022-10-16T07:11:08;7.45;;;2.95;;
26622;SDS011;14254;50.968;5.366;2022-10-16T07:13:35;5.80;;;3.50;;
26622;SDS011;14254;50.968;5.366;2022-10-16T07:16:06;7.13;;;3.38;;
26622;SDS011;14254;50.968;5.366;2022-10-16T07:18:34;9.52;;;2.83;;
26622;SDS011;14254;50.968;5.366;2022-10-16T07:21:08;5.10;;;2.88;;
26622;SDS011;14254;50.968;5.366;2022-10-16T07:23:36;8.00;;;2.78;;
26622;SDS011;14254;50.968;5.366;2022-10-16T07:26:03;4.55;;;2.92;;
26622;SDS011;14254;50.968;5.366;2022-10-16T07:28:29;6.00;;;3.10;;
26622;SDS011;14254;50.968;5.366;2022-10-16T07:30:59;5.10;;;2.83;;
26622;SDS011;14254;50.968;5.366;2022-10-16T07:33:26;5.88;;;2.90;;
26622;SDS011;14254;50.968;5.366;2022-10-16T07:35:53;4.45;;;2.33;;
26622;SDS011;14254;50.968;5.366;2022-10-16T07:38:20;8.20;;;2.80;;
26622;SDS011;14254;50.968;5.366;2022-10-16T07:40:46;9.38;;;3.08;;
26622;SDS011;14254;50.968;5.366;2022-10-16T07:43:12;7.07;;;2.63;;
26622;SDS011;14254;50.968;5.366;2022-10-16T07:45:48;5.05;;;2.50;;
26622;SDS011;14254;50.968;5.366;2022-10-16T07:48:15;3.63;;;2.28;;
26622;SDS011;14254;50.968;5.366;2022-10-16T07:50:41;4.20;;;2.40;;
26622;SDS011;14254;50.968;5.366;2022-10-16T07:53:08;4.93;;;2.00;;
26622;SDS011;14254;50.968;5.366;2022-10-16T07:55:34;6.32;;;2.38;;
26622;SDS011;14254;50.968;5.366;2022-10-16T07:57:59;3.35;;;2.67;;
26622;SDS011;14254;50.968;5.366;2022-10-16T08:00:25;4.97;;;1.98;;
26622;SDS011;14254;50.968;5.366;2022-10-16T08:02:50;4.30;;;2.25;;
26622;SDS011;14254;50.968;5.366;2022-10-16T08:05:16;6.13;;;2.50;;
26622;SDS011;14254;50.968;5.366;2022-10-16T08:07:42;6.95;;;2.38;;
26622;SDS011;14254;50.968;5.366;2022-10-16T08:10:11;4.68;;;2.33;;
26622;SDS011;14254;50.968;5.366;2022-10-16T08:12:41;4.22;;;2.20;;
26622;SDS011;14254;50.968;5.366;2022-10-16T08:15:07;2.58;;;1.67;;
26622;SDS011;14254;50.968;5.366;2022-10-16T08:17:34;5.35;;;2.10;;
26622;SDS011;14254;50.968;5.366;2022-10-16T08:19:59;2.83;;;1.52;;
26622;SDS011;14254;50.968;5.366;2022-10-16T08:22:25;3.67;;;2.20;;
26622;SDS011;14254;50.968;5.366;2022-10-16T08:24:51;3.92;;;1.92;;
26622;SDS011;14254;50.968;5.366;2022-10-16T08:27:17;6.25;;;2.78;;
26622;SDS011;14254;50.968;5.366;2022-10-16T08:29:42;5.00;;;1.70;;
26622;SDS011;14254;50.968;5.366;2022-10-16T08:32:08;4.75;;;1.80;;
26622;SDS011;14254;50.968;5.366;2022-10-16T08:34:34;4.00;;;1.73;;
26622;SDS011;14254;50.968;5.366;2022-10-16T08:36:59;4.07;;;1.80;;
26622;SDS011;14254;50.968;5.366;2022-10-16T08:39:25;5.78;;;1.95;;
26622;SDS011;14254;50.968;5.366;2022-10-16T08:45:01;4.72;;;1.63;;
26622;SDS011;14254;50.968;5.366;2022-10-16T08:47:49;3.63;;;2.05;;
26622;SDS011;14254;50.968;5.366;2022-10-16T08:50:24;3.78;;;1.80;;
26622;SDS011;14254;50.968;5.366;2022-10-16T08:52:53;8.68;;;2.08;;
26622;SDS011;14254;50.968;5.366;2022-10-16T08:55:41;6.28;;;2.03;;
26622;SDS011;14254;50.968;5.366;2022-10-16T08:58:13;2.65;;;1.70;;
26622;SDS011;14254;50.968;5.366;2022-10-16T09:00:48;4.93;;;1.90;;
26622;SDS011;14254;50.968;5.366;2022-10-16T09:06:31;6.38;;;1.33;;
26622;SDS011;14254;50.968;5.366;2022-10-16T09:11:47;6.93;;;1.95;;
26622;SDS011;14254;50.968;5.366;2022-10-16T09:16:53;5.80;;;1.60;;
26622;SDS011;14254;50.968;5.366;2022-10-16T09:19:31;4.18;;;1.58;;
26622;SDS011;14254;50.968;5.366;2022-10-16T09:21:59;7.57;;;1.30;;
26622;SDS011;14254;50.968;5.366;2022-10-16T09:24:34;6.70;;;1.60;;
26622;SDS011;14254;50.968;5.366;2022-10-16T09:27:00;5.40;;;1.80;;
26622;SDS011;14254;50.968;5.366;2022-10-16T09:29:25;4.35;;;1.40;;
26622;SDS011;14254;50.968;5.366;2022-10-16T09:31:52;4.45;;;1.50;;
26622;SDS011;14254;50.968;5.366;2022-10-16T09:34:24;4.95;;;1.27;;
26622;SDS011;14254;50.968;5.366;2022-10-16T09:36:59;5.03;;;1.40;;
26622;SDS011;14254;50.968;5.366;2022-10-16T09:39:29;7.90;;;1.73;;
26622;SDS011;14254;50.968;5.366;2022-10-16T09:41:55;5.95;;;1.88;;
26622;SDS011;14254;50.968;5.366;2022-10-16T09:44:25;5.63;;;1.40;;
26622;SDS011;14254;50.968;5.366;2022-10-16T09:47:03;5.50;;;1.70;;
26622;SDS011;14254;50.968;5.366;2022-10-16T09:49:30;7.70;;;1.75;;
26622;SDS011;14254;50.968;5.366;2022-10-16T09:52:09;13.95;;;2.20;;
26622;SDS011;14254;50.968;5.366;2022-10-16T09:54:48;4.60;;;1.75;;
26622;SDS011;14254;50.968;5.366;2022-10-16T09:57:18;11.55;;;2.03;;
26622;SDS011;14254;50.968;5.366;2022-10-16T09:59:51;5.75;;;2.22;;
26622;SDS011;14254;50.968;5.366;2022-10-16T10:02:28;8.68;;;2.28;;
26622;SDS011;14254;50.968;5.366;2022-10-16T10:05:04;4.78;;;1.58;;
26622;SDS011;14254;50.968;5.366;2022-10-16T10:07:43;9.23;;;1.55;;
26622;SDS011;14254;50.968;5.366;2022-10-16T10:10:18;8.55;;;1.48;;
26622;SDS011;14254;50.968;5.366;2022-10-16T10:12:46;4.65;;;1.60;;
26622;SDS011;14254;50.968;5.366;2022-10-16T10:15:12;4.18;;;1.33;;
26622;SDS011;14254;50.968;5.366;2022-10-16T10:17:49;8.90;;;1.60;;
26622;SDS011;14254;50.968;5.366;2022-10-16T10:20:18;3.10;;;1.38;;
26622;SDS011;14254;50.968;5.366;2022-10-16T10:22:47;3.88;;;1.80;;
26622;SDS011;14254;50.968;5.366;2022-10-16T10:30:32;9.02;;;1.50;;
26622;SDS011;14254;50.968;5.366;2022-10-16T10:38:51;7.25;;;1.20;;
26622;SDS011;14254;50.968;5.366;2022-10-16T10:44:01;10.45;;;1.38;;
26622;SDS011;14254;50.968;5.366;2022-10-16T10:46:51;9.02;;;1.95;;
26622;SDS011;14254;50.968;5.366;2022-10-16T11:00:53;6.40;;;1.45;;
26622;SDS011;14254;50.968;5.366;2022-10-16T11:06:11;7.65;;;1.63;;
26622;SDS011;14254;50.968;5.366;2022-10-16T11:11:16;6.82;;;1.65;;
26622;SDS011;14254;50.968;5.366;2022-10-16T11:14:50;3.58;;;1.42;;
26622;SDS011;14254;50.968;5.366;2022-10-16T11:19:52;3.03;;;1.13;;
26622;SDS011;14254;50.968;5.366;2022-10-16T11:22:39;5.35;;;1.50;;
26622;SDS011;14254;50.968;5.366;2022-10-16T11:25:16;4.07;;;0.90;;
26622;SDS011;14254;50.968;5.366;2022-10-16T11:28:08;5.38;;;1.10;;
26622;SDS011;14254;50.968;5.366;2022-10-16T11:34:12;5.30;;;1.15;;
26622;SDS011;14254;50.968;5.366;2022-10-16T11:39:43;8.70;;;0.95;;
26622;SDS011;14254;50.968;5.366;2022-10-16T11:42:22;5.00;;;1.23;;
26622;SDS011;14254;50.968;5.366;2022-10-16T11:56:04;4.78;;;1.42;;
26622;SDS011;14254;50.968;5.366;2022-10-16T11:58:51;2.78;;;1.00;;
26622;SDS011;14254;50.968;5.366;2022-10-16T12:09:52;2.53;;;1.42;;
26622;SDS011;14254;50.968;5.366;2022-10-16T12:12:39;3.28;;;1.23;;
26622;SDS011;14254;50.968;5.366;2022-10-16T12:17:51;5.38;;;1.23;;
26622;SDS011;14254;50.968;5.366;2022-10-16T12:22:51;3.85;;;1.00;;
26622;SDS011;14254;50.968;5.366;2022-10-16T12:25:22;3.03;;;1.42;;
26622;SDS011;14254;50.968;5.366;2022-10-16T12:27:53;4.35;;;1.08;;
26622;SDS011;14254;50.968;5.366;2022-10-16T12:32:58;14.52;;;1.58;;
26622;SDS011;14254;50.968;5.366;2022-10-16T12:35:30;3.72;;;0.90;;
26622;SDS011;14254;50.968;5.366;2022-10-16T12:38:36;5.80;;;1.40;;
26622;SDS011;14254;50.968;5.366;2022-10-16T12:41:00;2.72;;;0.68;;
26622;SDS011;14254;50.968;5.366;2022-10-16T12:48:28;2.85;;;0.98;;
26622;SDS011;14254;50.968;5.366;2022-10-16T12:50:54;2.03;;;1.25;;
26622;SDS011;14254;50.968;5.366;2022-10-16T12:53:25;2.58;;;0.70;;
26622;SDS011;14254;50.968;5.366;2022-10-16T12:55:54;3.40;;;0.88;;
26622;SDS011;14254;50.968;5.366;2022-10-16T13:00:57;5.47;;;1.00;;
26622;SDS011;14254;50.968;5.366;2022-10-16T13:08:53;6.05;;;1.02;;
26622;SDS011;14254;50.968;5.366;2022-10-16T13:14:39;20.23;;;1.95;;
26622;SDS011;14254;50.968;5.366;2022-10-16T13:17:41;1.73;;;0.70;;
26622;SDS011;14254;50.968;5.366;2022-10-16T13:23:22;5.53;;;0.77;;
26622;SDS011;14254;50.968;5.366;2022-10-16T13:26:23;3.25;;;1.13;;
26622;SDS011;14254;50.968;5.366;2022-10-16T13:28:59;3.38;;;0.90;;
26622;SDS011;14254;50.968;5.366;2022-10-16T13:31:26;4.68;;;1.00;;
26622;SDS011;14254;50.968;5.366;2022-10-16T13:33:53;3.92;;;0.75;;
26622;SDS011;14254;50.968;5.366;2022-10-16T13:36:30;3.77;;;0.87;;
26622;SDS011;14254;50.968;5.366;2022-10-16T13:39:06;4.55;;;1.05;;
26622;SDS011;14254;50.968;5.366;2022-10-16T13:41:40;4.18;;;0.95;;
26622;SDS011;14254;50.968;5.366;2022-10-16T13:44:11;2.78;;;1.02;;
26622;SDS011;14254;50.968;5.366;2022-10-16T13:46:44;1.55;;;0.73;;
26622;SDS011;14254;50.968;5.366;2022-10-16T13:49:19;3.05;;;1.10;;
26622;SDS011;14254;50.968;5.366;2022-10-16T13:52:03;3.00;;;0.98;;
26622;SDS011;14254;50.968;5.366;2022-10-16T13:54:28;2.40;;;0.77;;
26622;SDS011;14254;50.968;5.366;2022-10-16T13:56:54;3.85;;;1.05;;
26622;SDS011;14254;50.968;5.366;2022-10-16T14:01:50;4.15;;;1.13;;
26622;SDS011;14254;50.968;5.366;2022-10-16T14:04:19;7.25;;;0.88;;
26622;SDS011;14254;50.968;5.366;2022-10-16T14:06:45;2.72;;;1.23;;
26622;SDS011;14254;50.968;5.366;2022-10-16T14:11:48;3.40;;;0.90;;
26622;SDS011;14254;50.968;5.366;2022-10-16T14:14:16;2.90;;;1.17;;
26622;SDS011;14254;50.968;5.366;2022-10-16T14:16:43;8.23;;;0.90;;
26622;SDS011;14254;50.968;5.366;2022-10-16T14:21:48;4.25;;;0.90;;
26622;SDS011;14254;50.968;5.366;2022-10-16T14:24:31;4.20;;;1.25;;
26622;SDS011;14254;50.968;5.366;2022-10-16T14:26:58;2.35;;;0.85;;
26622;SDS011;14254;50.968;5.366;2022-10-16T14:29:26;2.40;;;0.98;;
26622;SDS011;14254;50.968;5.366;2022-10-16T14:31:57;2.28;;;0.88;;
26622;SDS011;14254;50.968;5.366;2022-10-16T14:34:31;6.43;;;0.98;;
26622;SDS011;14254;50.968;5.366;2022-10-16T14:37:23;4.60;;;1.27;;
26622;SDS011;14254;50.968;5.366;2022-10-16T14:39:51;10.13;;;1.55;;
26622;SDS011;14254;50.968;5.366;2022-10-16T14:42:19;1.85;;;1.45;;
26622;SDS011;14254;50.968;5.366;2022-10-16T14:44:48;3.03;;;0.80;;
26622;SDS011;14254;50.968;5.366;2022-10-16T14:47:18;3.53;;;0.80;;
26622;SDS011;14254;50.968;5.366;2022-10-16T14:49:51;4.95;;;1.35;;
26622;SDS011;14254;50.968;5.366;2022-10-16T14:52:20;3.40;;;1.00;;
26622;SDS011;14254;50.968;5.366;2022-10-16T14:54:49;5.07;;;1.48;;
26622;SDS011;14254;50.968;5.366;2022-10-16T14:57:19;4.05;;;1.05;;
26622;SDS011;14254;50.968;5.366;2022-10-16T14:59:49;1.70;;;0.90;;
26622;SDS011;14254;50.968;5.366;2022-10-16T15:02:31;6.18;;;1.02;;
26622;SDS011;14254;50.968;5.366;2022-10-16T15:05:07;2.38;;;0.90;;
26622;SDS011;14254;50.968;5.366;2022-10-16T15:07:43;4.78;;;1.10;;
26622;SDS011;14254;50.968;5.366;2022-10-16T15:10:09;3.70;;;1.33;;
26622;SDS011;14254;50.968;5.366;2022-10-16T15:12:35;2.75;;;0.80;;
26622;SDS011;14254;50.968;5.366;2022-10-16T15:15:01;2.35;;;1.20;;
26622;SDS011;14254;50.968;5.366;2022-10-16T15:17:27;3.08;;;1.00;;
26622;SDS011;14254;50.968;5.366;2022-10-16T15:19:52;2.35;;;1.00;;
26622;SDS011;14254;50.968;5.366;2022-10-16T15:22:18;5.78;;;1.40;;
26622;SDS011;14254;50.968;5.366;2022-10-16T15:24:43;2.28;;;0.73;;
26622;SDS011;14254;50.968;5.366;2022-10-16T15:27:09;3.80;;;0.85;;
26622;SDS011;14254;50.968;5.366;2022-10-16T15:29:35;3.47;;;1.88;;
26622;SDS011;14254;50.968;5.366;2022-10-16T15:32:00;3.85;;;0.90;;
26622;SDS011;14254;50.968;5.366;2022-10-16T15:34:26;6.97;;;1.40;;
26622;SDS011;14254;50.968;5.366;2022-10-16T15:36:52;2.85;;;1.23;;
26622;SDS011;14254;50.968;5.366;2022-10-16T15:39:20;3.17;;;0.88;;
26622;SDS011;14254;50.968;5.366;2022-10-16T15:41:46;3.78;;;1.20;;
26622;SDS011;14254;50.968;5.366;2022-10-16T15:44:15;2.17;;;1.20;;
26622;SDS011;14254;50.968;5.366;2022-10-16T15:46:42;2.85;;;1.00;;
26622;SDS011;14254;50.968;5.366;2022-10-16T15:49:08;5.72;;;1.88;;
26622;SDS011;14254;50.968;5.366;2022-10-16T15:51:35;10.45;;;1.63;;
26622;SDS011;14254;50.968;5.366;2022-10-16T15:54:03;2.65;;;1.05;;
26622;SDS011;14254;50.968;5.366;2022-10-16T15:56:29;6.20;;;1.33;;
26622;SDS011;14254;50.968;5.366;2022-10-16T15:58:58;4.97;;;1.23;;
26622;SDS011;14254;50.968;5.366;2022-10-16T16:01:24;8.07;;;2.08;;
26622;SDS011;14254;50.968;5.366;2022-10-16T16:03:52;5.15;;;3.22;;
26622;SDS011;14254;50.968;5.366;2022-10-16T16:06:18;4.55;;;2.10;;
26622;SDS011;14254;50.968;5.366;2022-10-16T16:08:44;5.40;;;1.88;;
26622;SDS011;14254;50.968;5.366;2022-10-16T16:11:11;8.40;;;3.10;;
26622;SDS011;14254;50.968;5.366;2022-10-16T16:13:38;8.32;;;6.88;;
26622;SDS011;14254;50.968;5.366;2022-10-16T16:16:08;13.27;;;7.38;;
26622;SDS011;14254;50.968;5.366;2022-10-16T16:18:39;4.95;;;2.20;;
26622;SDS011;14254;50.968;5.366;2022-10-16T16:21:04;4.35;;;1.95;;
26622;SDS011;14254;50.968;5.366;2022-10-16T16:23:30;11.63;;;5.75;;
26622;SDS011;14254;50.968;5.366;2022-10-16T16:26:29;12.40;;;5.85;;
26622;SDS011;14254;50.968;5.366;2022-10-16T16:28:52;12.23;;;7.25;;
26622;SDS011;14254;50.968;5.366;2022-10-16T16:31:28;9.40;;;4.22;;
26622;SDS011;14254;50.968;5.366;2022-10-16T16:33:55;10.75;;;4.97;;
26622;SDS011;14254;50.968;5.366;2022-10-16T16:36:22;49.83;;;18.08;;
26622;SDS011;14254;50.968;5.366;2022-10-16T16:38:48;72.38;;;24.17;;
26622;SDS011;14254;50.968;5.366;2022-10-16T16:41:15;39.85;;;14.43;;
26622;SDS011;14254;50.968;5.366;2022-10-16T16:43:43;12.00;;;5.25;;
26622;SDS011;14254;50.968;5.366;2022-10-16T16:46:08;14.30;;;3.55;;
26622;SDS011;14254;50.968;5.366;2022-10-16T16:48:34;10.38;;;4.18;;
26622;SDS011;14254;50.968;5.366;2022-10-16T16:51:10;7.40;;;4.55;;
26622;SDS011;14254;50.968;5.366;2022-10-16T16:53:44;11.85;;;4.53;;
26622;SDS011;14254;50.968;5.366;2022-10-16T16:56:12;8.43;;;4.60;;
26622;SDS011;14254;50.968;5.366;2022-10-16T16:58:38;9.00;;;3.83;;
26622;SDS011;14254;50.968;5.366;2022-10-16T17:01:04;9.38;;;4.65;;
26622;SDS011;14254;50.968;5.366;2022-10-16T17:03:32;7.40;;;3.97;;
26622;SDS011;14254;50.968;5.366;2022-10-16T17:05:59;7.78;;;3.10;;
26622;SDS011;14254;50.968;5.366;2022-10-16T17:08:25;11.18;;;3.60;;
26622;SDS011;14254;50.968;5.366;2022-10-16T17:10:51;7.95;;;4.55;;